sensor_id;sensor_type;location;lat;lon;timestamp;temperature;humidity
65472;DHT22;52068;50.710;14.492;2023-01-28T00:01:54;20.59;43.00
65472;DHT22;52068;50.710;14.492;2023-01-28T00:04:19;20.56;43.13
65472;DHT22;52068;50.710;14.492;2023-01-28T00:06:44;20.55;42.81
65472;DHT22;52068;50.710;14.492;2023-01-28T00:09:09;20.51;42.72
65472;DHT22;52068;50.710;14.492;2023-01-28T00:11:35;20.51;43.27
65472;DHT22;52068;50.710;14.492;2023-01-28T00:14:00;20.47;43.37
65472;DHT22;52068;50.710;14.492;2023-01-28T00:16:28;20.45;43.25
65472;DHT22;52068;50.710;14.492;2023-01-28T00:18:54;20.40;43.29
65472;DHT22;52068;50.710;14.492;2023-01-28T00:21:19;20.35;43.42
65472;DHT22;52068;50.710;14.492;2023-01-28T00:23:51;20.34;43.66
65472;DHT22;52068;50.710;14.492;2023-01-28T00:26:18;20.28;43.63
65472;DHT22;52068;50.710;14.492;2023-01-28T00:28:43;20.27;43.47
65472;DHT22;52068;50.710;14.492;2023-01-28T00:31:09;20.24;43.58
65472;DHT22;52068;50.710;14.492;2023-01-28T00:33:36;20.23;43.61
65472;DHT22;52068;50.710;14.492;2023-01-28T00:36:02;20.18;43.75
65472;DHT22;52068;50.710;14.492;2023-01-28T00:38:27;20.21;43.45
65472;DHT22;52068;50.710;14.492;2023-01-28T00:40:53;20.21;43.39
65472;DHT22;52068;50.710;14.492;2023-01-28T00:43:18;20.23;44.09
65472;DHT22;52068;50.710;14.492;2023-01-28T00:45:43;20.21;43.47
65472;DHT22;52068;50.710;14.492;2023-01-28T00:48:08;20.21;43.55
65472;DHT22;52068;50.710;14.492;2023-01-28T00:50:34;20.24;43.45
65472;DHT22;52068;50.710;14.492;2023-01-28T00:52:59;20.23;43.65
65472;DHT22;52068;50.710;14.492;2023-01-28T00:55:25;20.25;43.69
65472;DHT22;52068;50.710;14.492;2023-01-28T00:57:50;20.27;44.10
65472;DHT22;52068;50.710;14.492;2023-01-28T01:00:16;20.27;44.15
65472;DHT22;52068;50.710;14.492;2023-01-28T01:02:44;20.30;44.31
65472;DHT22;52068;50.710;14.492;2023-01-28T01:05:09;20.30;44.23
65472;DHT22;52068;50.710;14.492;2023-01-28T01:07:34;20.27;44.22
65472;DHT22;52068;50.710;14.492;2023-01-28T01:10:05;20.30;44.19
65472;DHT22;52068;50.710;14.492;2023-01-28T01:12:31;20.33;44.35
65472;DHT22;52068;50.710;14.492;2023-01-28T01:14:56;20.35;44.16
65472;DHT22;52068;50.710;14.492;2023-01-28T01:17:21;20.34;43.83
65472;DHT22;52068;50.710;14.492;2023-01-28T01:19:47;20.33;44.30
65472;DHT22;52068;50.710;14.492;2023-01-28T01:22:12;20.33;44.30
65472;DHT22;52068;50.710;14.492;2023-01-28T01:24:37;20.33;43.99
65472;DHT22;52068;50.710;14.492;2023-01-28T01:27:02;20.30;44.09
65472;DHT22;52068;50.710;14.492;2023-01-28T01:29:30;20.30;44.33
65472;DHT22;52068;50.710;14.492;2023-01-28T01:31:55;20.25;44.06
65472;DHT22;52068;50.710;14.492;2023-01-28T01:34:20;20.25;44.03
65472;DHT22;52068;50.710;14.492;2023-01-28T01:36:46;20.27;43.77
65472;DHT22;52068;50.710;14.492;2023-01-28T01:39:11;20.24;43.87
65472;DHT22;52068;50.710;14.492;2023-01-28T01:41:37;20.23;43.83
65472;DHT22;52068;50.710;14.492;2023-01-28T01:44:03;20.25;44.03
65472;DHT22;52068;50.710;14.492;2023-01-28T01:46:44;20.25;44.12
65472;DHT22;52068;50.710;14.492;2023-01-28T01:49:15;20.28;43.88
65472;DHT22;52068;50.710;14.492;2023-01-28T01:51:43;20.28;44.07
65472;DHT22;52068;50.710;14.492;2023-01-28T01:54:09;20.28;43.94
65472;DHT22;52068;50.710;14.492;2023-01-28T01:56:36;20.25;43.66
65472;DHT22;52068;50.710;14.492;2023-01-28T01:59:02;20.25;43.77
65472;DHT22;52068;50.710;14.492;2023-01-28T02:01:28;20.25;43.64
65472;DHT22;52068;50.710;14.492;2023-01-28T02:06:59;20.17;43.57
65472;DHT22;52068;50.710;14.492;2023-01-28T02:09:25;20.17;43.50
65472;DHT22;52068;50.710;14.492;2023-01-28T02:11:52;20.13;43.75
65472;DHT22;52068;50.710;14.492;2023-01-28T02:14:19;20.13;43.93
65472;DHT22;52068;50.710;14.492;2023-01-28T02:16:45;20.09;43.74
65472;DHT22;52068;50.710;14.492;2023-01-28T02:19:11;20.09;43.99
65472;DHT22;52068;50.710;14.492;2023-01-28T02:24:23;20.01;44.19
65472;DHT22;52068;50.710;14.492;2023-01-28T02:29:43;19.94;44.41
65472;DHT22;52068;50.710;14.492;2023-01-28T02:34:40;19.96;44.53
65472;DHT22;52068;50.710;14.492;2023-01-28T02:37:12;20.00;44.50
65472;DHT22;52068;50.710;14.492;2023-01-28T02:39:41;20.04;44.60
65472;DHT22;52068;50.710;14.492;2023-01-28T02:42:11;20.11;44.41
65472;DHT22;52068;50.710;14.492;2023-01-28T02:44:38;20.18;44.13
65472;DHT22;52068;50.710;14.492;2023-01-28T02:47:08;20.24;43.96
65472;DHT22;52068;50.710;14.492;2023-01-28T02:49:52;20.28;43.72
65472;DHT22;52068;50.710;14.492;2023-01-28T02:55:05;20.30;43.98
65472;DHT22;52068;50.710;14.492;2023-01-28T03:07:34;20.37;43.27
65472;DHT22;52068;50.710;14.492;2023-01-28T03:10:01;20.37;43.87
65472;DHT22;52068;50.710;14.492;2023-01-28T03:12:30;20.41;43.68
65472;DHT22;52068;50.710;14.492;2023-01-28T03:15:28;20.40;43.74
65472;DHT22;52068;50.710;14.492;2023-01-28T03:18:14;20.40;43.42
65472;DHT22;52068;50.710;14.492;2023-01-28T03:23:47;20.35;43.27
65472;DHT22;52068;50.710;14.492;2023-01-28T03:26:34;20.37;43.38
65472;DHT22;52068;50.710;14.492;2023-01-28T03:29:20;20.35;43.60
65472;DHT22;52068;50.710;14.492;2023-01-28T03:32:06;20.31;43.64
65472;DHT22;52068;50.710;14.492;2023-01-28T03:34:50;20.30;43.94
65472;DHT22;52068;50.710;14.492;2023-01-28T03:37:34;20.27;43.69
65472;DHT22;52068;50.710;14.492;2023-01-28T03:40:00;20.25;43.85
65472;DHT22;52068;50.710;14.492;2023-01-28T03:42:26;20.25;43.63
65472;DHT22;52068;50.710;14.492;2023-01-28T03:44:51;20.21;43.63
65472;DHT22;52068;50.710;14.492;2023-01-28T03:47:17;20.24;43.93
65472;DHT22;52068;50.710;14.492;2023-01-28T03:49:44;20.23;43.49
65472;DHT22;52068;50.710;14.492;2023-01-28T03:52:10;20.24;43.73
65472;DHT22;52068;50.710;14.492;2023-01-28T03:54:36;20.20;43.85
65472;DHT22;52068;50.710;14.492;2023-01-28T03:57:01;20.23;43.73
65472;DHT22;52068;50.710;14.492;2023-01-28T03:59:26;20.25;43.53
65472;DHT22;52068;50.710;14.492;2023-01-28T04:01:52;20.24;43.91
65472;DHT22;52068;50.710;14.492;2023-01-28T04:04:17;20.27;43.80
65472;DHT22;52068;50.710;14.492;2023-01-28T04:06:49;20.28;43.60
65472;DHT22;52068;50.710;14.492;2023-01-28T04:09:15;20.28;43.58
65472;DHT22;52068;50.710;14.492;2023-01-28T04:11:40;20.30;43.39
65472;DHT22;52068;50.710;14.492;2023-01-28T04:14:05;20.33;44.00
65472;DHT22;52068;50.710;14.492;2023-01-28T04:16:30;20.33;43.92
65472;DHT22;52068;50.710;14.492;2023-01-28T04:18:56;20.30;44.18
65472;DHT22;52068;50.710;14.492;2023-01-28T04:21:22;20.33;43.82
65472;DHT22;52068;50.710;14.492;2023-01-28T04:23:48;20.35;44.16
65472;DHT22;52068;50.710;14.492;2023-01-28T04:26:13;20.38;44.20
65472;DHT22;52068;50.710;14.492;2023-01-28T04:28:38;20.37;43.63
65472;DHT22;52068;50.710;14.492;2023-01-28T04:31:03;20.38;43.93
65472;DHT22;52068;50.710;14.492;2023-01-28T04:33:29;20.35;43.97
65472;DHT22;52068;50.710;14.492;2023-01-28T04:35:54;20.34;43.55
65472;DHT22;52068;50.710;14.492;2023-01-28T04:38:19;20.33;43.49
65472;DHT22;52068;50.710;14.492;2023-01-28T04:40:47;20.33;43.35
65472;DHT22;52068;50.710;14.492;2023-01-28T04:43:13;20.28;43.44
65472;DHT22;52068;50.710;14.492;2023-01-28T04:45:38;20.27;43.59
65472;DHT22;52068;50.710;14.492;2023-01-28T04:48:03;20.25;43.64
65472;DHT22;52068;50.710;14.492;2023-01-28T04:50:29;20.21;44.11
65472;DHT22;52068;50.710;14.492;2023-01-28T04:52:54;20.21;43.82
65472;DHT22;52068;50.710;14.492;2023-01-28T04:55:19;20.21;43.55
65472;DHT22;52068;50.710;14.492;2023-01-28T04:57:45;20.23;43.59
65472;DHT22;52068;50.710;14.492;2023-01-28T05:00:10;20.18;43.55
65472;DHT22;52068;50.710;14.492;2023-01-28T05:02:36;20.17;44.12
65472;DHT22;52068;50.710;14.492;2023-01-28T05:05:01;20.16;43.69
65472;DHT22;52068;50.710;14.492;2023-01-28T05:07:29;20.18;44.07
65472;DHT22;52068;50.710;14.492;2023-01-28T05:09:54;20.23;44.35
65472;DHT22;52068;50.710;14.492;2023-01-28T05:12:19;20.25;44.38
65472;DHT22;52068;50.710;14.492;2023-01-28T05:14:44;20.28;44.35
65472;DHT22;52068;50.710;14.492;2023-01-28T05:17:10;20.34;44.22
65472;DHT22;52068;50.710;14.492;2023-01-28T05:19:35;20.37;44.15
65472;DHT22;52068;50.710;14.492;2023-01-28T05:22:00;20.40;43.96
65472;DHT22;52068;50.710;14.492;2023-01-28T05:24:25;20.38;43.93
65472;DHT22;52068;50.710;14.492;2023-01-28T05:26:51;20.40;43.76
65472;DHT22;52068;50.710;14.492;2023-01-28T05:29:16;20.41;44.19
65472;DHT22;52068;50.710;14.492;2023-01-28T05:31:41;20.41;43.76
65472;DHT22;52068;50.710;14.492;2023-01-28T05:34:06;20.41;43.29
65472;DHT22;52068;50.710;14.492;2023-01-28T05:36:32;20.40;43.68
65472;DHT22;52068;50.710;14.492;2023-01-28T05:38:57;20.41;43.48
65472;DHT22;52068;50.710;14.492;2023-01-28T05:41:23;20.34;43.42
65472;DHT22;52068;50.710;14.492;2023-01-28T05:43:48;20.31;43.58
65472;DHT22;52068;50.710;14.492;2023-01-28T05:46:13;20.30;43.87
65472;DHT22;52068;50.710;14.492;2023-01-28T05:48:38;20.27;43.71
65472;DHT22;52068;50.710;14.492;2023-01-28T05:51:04;20.25;43.79
65472;DHT22;52068;50.710;14.492;2023-01-28T05:53:29;20.24;43.70
65472;DHT22;52068;50.710;14.492;2023-01-28T05:55:54;20.20;43.65
65472;DHT22;52068;50.710;14.492;2023-01-28T05:58:20;20.21;44.34
65472;DHT22;52068;50.710;14.492;2023-01-28T06:00:45;20.18;43.83
65472;DHT22;52068;50.710;14.492;2023-01-28T06:03:11;20.20;44.22
65472;DHT22;52068;50.710;14.492;2023-01-28T06:05:36;20.18;43.99
65472;DHT22;52068;50.710;14.492;2023-01-28T06:08:01;20.17;44.14
65472;DHT22;52068;50.710;14.492;2023-01-28T06:10:27;20.17;44.08
65472;DHT22;52068;50.710;14.492;2023-01-28T06:12:52;20.20;43.90
65472;DHT22;52068;50.710;14.492;2023-01-28T06:15:17;20.20;44.18
65472;DHT22;52068;50.710;14.492;2023-01-28T06:17:42;20.23;44.41
65472;DHT22;52068;50.710;14.492;2023-01-28T06:20:08;20.27;44.58
65472;DHT22;52068;50.710;14.492;2023-01-28T06:22:33;20.27;44.03
65472;DHT22;52068;50.710;14.492;2023-01-28T06:24:59;20.31;44.36
65472;DHT22;52068;50.710;14.492;2023-01-28T06:27:24;20.33;44.19
65472;DHT22;52068;50.710;14.492;2023-01-28T06:29:49;20.37;43.47
65472;DHT22;52068;50.710;14.492;2023-01-28T06:32:15;20.34;44.12
65472;DHT22;52068;50.710;14.492;2023-01-28T06:34:40;20.33;44.03
65472;DHT22;52068;50.710;14.492;2023-01-28T06:37:06;20.34;44.21
65472;DHT22;52068;50.710;14.492;2023-01-28T06:39:31;20.33;44.27
65472;DHT22;52068;50.710;14.492;2023-01-28T06:41:57;20.34;43.59
65472;DHT22;52068;50.710;14.492;2023-01-28T06:44:22;20.33;43.69
65472;DHT22;52068;50.710;14.492;2023-01-28T06:46:48;20.35;44.46
65472;DHT22;52068;50.710;14.492;2023-01-28T06:49:13;20.33;44.41
65472;DHT22;52068;50.710;14.492;2023-01-28T06:51:38;20.35;44.11
65472;DHT22;52068;50.710;14.492;2023-01-28T06:54:03;20.38;44.23
65472;DHT22;52068;50.710;14.492;2023-01-28T06:56:29;20.41;44.44
65472;DHT22;52068;50.710;14.492;2023-01-28T06:58:54;20.40;44.21
65472;DHT22;52068;50.710;14.492;2023-01-28T07:01:19;20.45;44.28
65472;DHT22;52068;50.710;14.492;2023-01-28T07:03:45;20.47;44.38
65472;DHT22;52068;50.710;14.492;2023-01-28T07:06:10;20.47;44.11
65472;DHT22;52068;50.710;14.492;2023-01-28T07:08:35;20.51;43.86
65472;DHT22;52068;50.710;14.492;2023-01-28T07:11:02;20.48;43.07
65472;DHT22;52068;50.710;14.492;2023-01-28T07:13:28;20.47;43.14
65472;DHT22;52068;50.710;14.492;2023-01-28T07:15:53;20.47;43.85
65472;DHT22;52068;50.710;14.492;2023-01-28T07:18:18;20.47;43.96
65472;DHT22;52068;50.710;14.492;2023-01-28T07:20:44;20.49;43.43
65472;DHT22;52068;50.710;14.492;2023-01-28T07:23:09;20.51;43.53
65472;DHT22;52068;50.710;14.492;2023-01-28T07:25:35;20.54;43.49
65472;DHT22;52068;50.710;14.492;2023-01-28T07:28:00;20.56;43.26
65472;DHT22;52068;50.710;14.492;2023-01-28T07:30:25;20.61;43.11
65472;DHT22;52068;50.710;14.492;2023-01-28T07:32:54;20.59;42.99
65472;DHT22;52068;50.710;14.492;2023-01-28T07:35:19;20.61;43.27
65472;DHT22;52068;50.710;14.492;2023-01-28T07:37:51;20.64;42.51
65472;DHT22;52068;50.710;14.492;2023-01-28T07:40:17;20.58;42.21
65472;DHT22;52068;50.710;14.492;2023-01-28T07:42:42;20.58;41.90
65472;DHT22;52068;50.710;14.492;2023-01-28T07:45:08;20.54;41.47
65472;DHT22;52068;50.710;14.492;2023-01-28T07:47:33;20.49;41.49
65472;DHT22;52068;50.710;14.492;2023-01-28T07:49:58;20.45;42.34
65472;DHT22;52068;50.710;14.492;2023-01-28T07:52:24;20.45;42.28
65472;DHT22;52068;50.710;14.492;2023-01-28T07:54:49;20.42;41.53
65472;DHT22;52068;50.710;14.492;2023-01-28T07:57:14;20.42;41.68
65472;DHT22;52068;50.710;14.492;2023-01-28T07:59:50;20.45;41.98
65472;DHT22;52068;50.710;14.492;2023-01-28T08:02:15;20.40;40.99
65472;DHT22;52068;50.710;14.492;2023-01-28T08:04:40;20.40;41.71
65472;DHT22;52068;50.710;14.492;2023-01-28T08:07:06;20.42;41.18
65472;DHT22;52068;50.710;14.492;2023-01-28T08:09:31;20.42;41.28
65472;DHT22;52068;50.710;14.492;2023-01-28T08:11:58;20.42;41.03
65472;DHT22;52068;50.710;14.492;2023-01-28T08:14:23;20.51;41.69
65472;DHT22;52068;50.710;14.492;2023-01-28T08:16:48;20.55;41.49
65472;DHT22;52068;50.710;14.492;2023-01-28T08:19:14;20.61;41.62
65472;DHT22;52068;50.710;14.492;2023-01-28T08:21:39;20.65;41.17
65472;DHT22;52068;50.710;14.492;2023-01-28T08:24:04;20.71;40.83
65472;DHT22;52068;50.710;14.492;2023-01-28T08:26:30;20.69;40.73
65472;DHT22;52068;50.710;14.492;2023-01-28T08:28:55;20.67;40.19
65472;DHT22;52068;50.710;14.492;2023-01-28T08:31:20;20.68;41.38
65472;DHT22;52068;50.710;14.492;2023-01-28T08:33:46;20.67;40.64
65472;DHT22;52068;50.710;14.492;2023-01-28T08:36:11;20.64;40.85
65472;DHT22;52068;50.710;14.492;2023-01-28T08:38:36;20.64;41.00
65472;DHT22;52068;50.710;14.492;2023-01-28T08:41:01;20.64;41.08
65472;DHT22;52068;50.710;14.492;2023-01-28T08:43:27;20.62;41.85
65472;DHT22;52068;50.710;14.492;2023-01-28T08:45:52;20.58;41.89
65472;DHT22;52068;50.710;14.492;2023-01-28T08:48:18;20.58;42.41
65472;DHT22;52068;50.710;14.492;2023-01-28T08:50:43;20.55;41.43
65472;DHT22;52068;50.710;14.492;2023-01-28T08:53:10;20.55;41.77
65472;DHT22;52068;50.710;14.492;2023-01-28T08:55:35;20.52;41.26
65472;DHT22;52068;50.710;14.492;2023-01-28T08:58:02;20.51;42.11
65472;DHT22;52068;50.710;14.492;2023-01-28T09:00:27;20.48;41.52
65472;DHT22;52068;50.710;14.492;2023-01-28T09:02:53;20.45;41.93
65472;DHT22;52068;50.710;14.492;2023-01-28T09:05:18;20.42;42.05
65472;DHT22;52068;50.710;14.492;2023-01-28T09:07:43;20.41;42.12
65472;DHT22;52068;50.710;14.492;2023-01-28T09:10:09;20.40;42.21
65472;DHT22;52068;50.710;14.492;2023-01-28T09:12:35;20.38;42.75
65472;DHT22;52068;50.710;14.492;2023-01-28T09:15:00;20.35;42.30
65472;DHT22;52068;50.710;14.492;2023-01-28T09:17:25;20.35;41.99
65472;DHT22;52068;50.710;14.492;2023-01-28T09:19:51;20.33;42.82
65472;DHT22;52068;50.710;14.492;2023-01-28T09:22:16;20.37;41.81
65472;DHT22;52068;50.710;14.492;2023-01-28T09:24:41;21.77;40.47
65472;DHT22;52068;50.710;14.492;2023-01-28T09:27:07;24.26;35.77
65472;DHT22;52068;50.710;14.492;2023-01-28T09:29:32;26.64;31.61
65472;DHT22;52068;50.710;14.492;2023-01-28T09:31:58;28.55;28.80
65472;DHT22;52068;50.710;14.492;2023-01-28T09:34:23;30.15;26.51
65472;DHT22;52068;50.710;14.492;2023-01-28T09:36:49;31.19;25.16
65472;DHT22;52068;50.710;14.492;2023-01-28T09:39:14;32.00;23.97
65472;DHT22;52068;50.710;14.492;2023-01-28T09:44:36;32.34;23.35
65472;DHT22;52068;50.710;14.492;2023-01-28T09:47:06;32.20;23.64
65472;DHT22;52068;50.710;14.492;2023-01-28T09:49:34;31.89;23.99
65472;DHT22;52068;50.710;14.492;2023-01-28T09:52:01;31.46;24.60
65472;DHT22;52068;50.710;14.492;2023-01-28T09:54:45;31.01;25.00
65472;DHT22;52068;50.710;14.492;2023-01-28T09:57:46;30.54;25.57
65472;DHT22;52068;50.710;14.492;2023-01-28T10:00:09;30.06;26.17
65472;DHT22;52068;50.710;14.492;2023-01-28T10:02:36;29.71;26.81
65472;DHT22;52068;50.710;14.492;2023-01-28T10:10:14;28.56;28.45
65472;DHT22;52068;50.710;14.492;2023-01-28T10:12:57;28.18;29.10
65472;DHT22;52068;50.710;14.492;2023-01-28T10:15:27;27.80;29.55
65472;DHT22;52068;50.710;14.492;2023-01-28T10:17:56;27.47;30.00
65472;DHT22;52068;50.710;14.492;2023-01-28T10:20:29;27.13;30.52
65472;DHT22;52068;50.710;14.492;2023-01-28T10:23:03;26.84;31.01
65472;DHT22;52068;50.710;14.492;2023-01-28T10:25:30;26.54;31.55
65472;DHT22;52068;50.710;14.492;2023-01-28T10:27:56;26.28;32.01
65472;DHT22;52068;50.710;14.492;2023-01-28T10:30:23;26.06;32.41
65472;DHT22;52068;50.710;14.492;2023-01-28T10:32:52;25.83;32.73
65472;DHT22;52068;50.710;14.492;2023-01-28T10:35:19;25.59;33.24
65472;DHT22;52068;50.710;14.492;2023-01-28T10:37:45;25.38;33.54
65472;DHT22;52068;50.710;14.492;2023-01-28T10:40:16;25.18;33.86
65472;DHT22;52068;50.710;14.492;2023-01-28T10:42:42;24.99;34.37
65472;DHT22;52068;50.710;14.492;2023-01-28T10:45:19;24.83;34.75
65472;DHT22;52068;50.710;14.492;2023-01-28T10:50:30;24.46;35.55
65472;DHT22;52068;50.710;14.492;2023-01-28T10:53:00;24.30;35.73
65472;DHT22;52068;50.710;14.492;2023-01-28T10:55:26;24.16;36.27
65472;DHT22;52068;50.710;14.492;2023-01-28T10:57:52;24.05;36.35
65472;DHT22;52068;50.710;14.492;2023-01-28T11:02:43;23.86;36.58
65472;DHT22;52068;50.710;14.492;2023-01-28T11:05:19;23.76;36.81
65472;DHT22;52068;50.710;14.492;2023-01-28T11:07:45;23.69;37.19
65472;DHT22;52068;50.710;14.492;2023-01-28T11:10:29;23.62;37.33
65472;DHT22;52068;50.710;14.492;2023-01-28T11:13:01;23.55;37.57
65472;DHT22;52068;50.710;14.492;2023-01-28T11:15:27;23.47;38.02
65472;DHT22;52068;50.710;14.492;2023-01-28T11:18:03;23.44;37.90
65472;DHT22;52068;50.710;14.492;2023-01-28T11:20:32;23.38;37.78
65472;DHT22;52068;50.710;14.492;2023-01-28T11:22:59;23.31;38.41
65472;DHT22;52068;50.710;14.492;2023-01-28T11:27:50;23.24;38.51
65472;DHT22;52068;50.710;14.492;2023-01-28T11:30:20;23.18;38.73
65472;DHT22;52068;50.710;14.492;2023-01-28T11:32:52;23.14;38.80
65472;DHT22;52068;50.710;14.492;2023-01-28T11:35:25;23.10;38.79
65472;DHT22;52068;50.710;14.492;2023-01-28T11:37:52;23.06;39.10
65472;DHT22;52068;50.710;14.492;2023-01-28T11:40:18;23.04;39.30
65472;DHT22;52068;50.710;14.492;2023-01-28T11:42:46;23.03;38.97
65472;DHT22;52068;50.710;14.492;2023-01-28T11:45:15;23.00;39.38
65472;DHT22;52068;50.710;14.492;2023-01-28T11:48:02;22.97;39.35
65472;DHT22;52068;50.710;14.492;2023-01-28T11:58:02;22.93;39.44
65472;DHT22;52068;50.710;14.492;2023-01-28T12:05:43;22.93;39.57
65472;DHT22;52068;50.710;14.492;2023-01-28T12:08:20;22.94;39.46
65472;DHT22;52068;50.710;14.492;2023-01-28T12:21:24;23.00;39.49
65472;DHT22;52068;50.710;14.492;2023-01-28T12:23:48;23.02;39.32
65472;DHT22;52068;50.710;14.492;2023-01-28T12:26:33;23.02;39.20
65472;DHT22;52068;50.710;14.492;2023-01-28T12:41:41;22.97;39.05
65472;DHT22;52068;50.710;14.492;2023-01-28T12:44:14;22.96;39.00
65472;DHT22;52068;50.710;14.492;2023-01-28T12:46:48;22.99;38.94
65472;DHT22;52068;50.710;14.492;2023-01-28T12:54:38;22.97;38.98
65472;DHT22;52068;50.710;14.492;2023-01-28T12:57:05;22.94;38.97
65472;DHT22;52068;50.710;14.492;2023-01-28T13:04:44;22.94;38.90
65472;DHT22;52068;50.710;14.492;2023-01-28T13:09:36;22.96;38.79
65472;DHT22;52068;50.710;14.492;2023-01-28T13:12:03;22.97;38.56
65472;DHT22;52068;50.710;14.492;2023-01-28T13:14:29;23.00;38.59
65472;DHT22;52068;50.710;14.492;2023-01-28T13:16:56;22.97;38.79
65472;DHT22;52068;50.710;14.492;2023-01-28T13:19:22;22.99;38.54
65472;DHT22;52068;50.710;14.492;2023-01-28T13:21:48;22.97;38.67
65472;DHT22;52068;50.710;14.492;2023-01-28T13:31:39;23.02;38.69
65472;DHT22;52068;50.710;14.492;2023-01-28T13:34:05;23.02;38.60
65472;DHT22;52068;50.710;14.492;2023-01-28T13:39:20;23.03;38.55
65472;DHT22;52068;50.710;14.492;2023-01-28T13:42:06;23.04;38.65
65472;DHT22;52068;50.710;14.492;2023-01-28T13:44:33;23.07;38.61
65472;DHT22;52068;50.710;14.492;2023-01-28T13:52:00;22.96;38.02
65472;DHT22;52068;50.710;14.492;2023-01-28T13:54:28;22.89;38.44
65472;DHT22;52068;50.710;14.492;2023-01-28T13:59:28;22.76;38.59
65472;DHT22;52068;50.710;14.492;2023-01-28T14:02:02;22.67;38.60
65472;DHT22;52068;50.710;14.492;2023-01-28T14:04:43;22.59;39.10
65472;DHT22;52068;50.710;14.492;2023-01-28T14:07:15;22.55;39.28
65472;DHT22;52068;50.710;14.492;2023-01-28T14:09:52;22.46;38.76
65472;DHT22;52068;50.710;14.492;2023-01-28T14:12:29;22.42;38.58
65472;DHT22;52068;50.710;14.492;2023-01-28T14:17:28;22.32;39.45
65472;DHT22;52068;50.710;14.492;2023-01-28T14:19:57;22.28;39.29
65472;DHT22;52068;50.710;14.492;2023-01-28T14:22:23;22.24;39.49
65472;DHT22;52068;50.710;14.492;2023-01-28T14:24:48;22.19;39.51
65472;DHT22;52068;50.710;14.492;2023-01-28T14:32:26;22.11;39.48
65472;DHT22;52068;50.710;14.492;2023-01-28T14:34:51;22.06;39.95
65472;DHT22;52068;50.710;14.492;2023-01-28T14:37:21;22.04;39.39
65472;DHT22;52068;50.710;14.492;2023-01-28T14:39:48;22.01;39.54
65472;DHT22;52068;50.710;14.492;2023-01-28T14:42:29;22.02;39.79
65472;DHT22;52068;50.710;14.492;2023-01-28T14:47:54;22.04;39.67
65472;DHT22;52068;50.710;14.492;2023-01-28T14:58:35;22.06;39.99
65472;DHT22;52068;50.710;14.492;2023-01-28T15:01:01;22.02;40.45
65472;DHT22;52068;50.710;14.492;2023-01-28T15:03:27;21.98;40.22
65472;DHT22;52068;50.710;14.492;2023-01-28T15:06:10;21.98;39.90
65472;DHT22;52068;50.710;14.492;2023-01-28T15:08:36;21.94;39.92
65472;DHT22;52068;50.710;14.492;2023-01-28T15:11:01;21.92;39.21
65472;DHT22;52068;50.710;14.492;2023-01-28T15:13:27;21.88;39.82
65472;DHT22;52068;50.710;14.492;2023-01-28T15:15:53;21.85;39.12
65472;DHT22;52068;50.710;14.492;2023-01-28T15:20:56;21.74;39.17
65472;DHT22;52068;50.710;14.492;2023-01-28T15:23:25;21.71;37.84
65472;DHT22;52068;50.710;14.492;2023-01-28T15:25:50;21.58;37.97
65472;DHT22;52068;50.710;14.492;2023-01-28T15:28:18;21.63;39.30
65472;DHT22;52068;50.710;14.492;2023-01-28T15:30:45;21.81;38.85
65472;DHT22;52068;50.710;14.492;2023-01-28T15:33:14;22.16;38.50
65472;DHT22;52068;50.710;14.492;2023-01-28T15:35:47;22.64;37.61
65472;DHT22;52068;50.710;14.492;2023-01-28T15:38:13;23.02;37.20
65472;DHT22;52068;50.710;14.492;2023-01-28T15:40:42;23.24;36.84
65472;DHT22;52068;50.710;14.492;2023-01-28T15:43:17;23.37;36.85
65472;DHT22;52068;50.710;14.492;2023-01-28T15:45:44;23.37;36.97
65472;DHT22;52068;50.710;14.492;2023-01-28T15:48:12;23.38;36.31
65472;DHT22;52068;50.710;14.492;2023-01-28T15:50:38;23.37;36.56
65472;DHT22;52068;50.710;14.492;2023-01-28T15:53:07;23.27;37.02
65472;DHT22;52068;50.710;14.492;2023-01-28T15:55:34;23.15;37.21
65472;DHT22;52068;50.710;14.492;2023-01-28T15:58:45;23.07;37.42
65472;DHT22;52068;50.710;14.492;2023-01-28T16:00:46;22.96;37.87
65472;DHT22;52068;50.710;14.492;2023-01-28T16:03:16;22.86;37.79
65472;DHT22;52068;50.710;14.492;2023-01-28T16:05:42;22.76;38.09
65472;DHT22;52068;50.710;14.492;2023-01-28T16:08:21;22.67;38.29
65472;DHT22;52068;50.710;14.492;2023-01-28T16:10:52;22.57;38.73
65472;DHT22;52068;50.710;14.492;2023-01-28T16:13:19;22.46;38.74
65472;DHT22;52068;50.710;14.492;2023-01-28T16:15:46;22.38;38.30
65472;DHT22;52068;50.710;14.492;2023-01-28T16:20:57;22.15;39.36
65472;DHT22;52068;50.710;14.492;2023-01-28T16:23:23;22.11;39.03
65472;DHT22;52068;50.710;14.492;2023-01-28T16:26:02;22.00;38.65
65472;DHT22;52068;50.710;14.492;2023-01-28T16:28:28;21.91;38.67
65472;DHT22;52068;50.710;14.492;2023-01-28T16:30:54;21.81;38.81
65472;DHT22;52068;50.710;14.492;2023-01-28T16:33:20;21.75;38.71
65472;DHT22;52068;50.710;14.492;2023-01-28T16:35:46;21.65;38.71
65472;DHT22;52068;50.710;14.492;2023-01-28T16:38:11;21.55;38.71
65472;DHT22;52068;50.710;14.492;2023-01-28T16:40:41;21.53;38.67
65472;DHT22;52068;50.710;14.492;2023-01-28T16:43:07;21.49;38.61
65472;DHT22;52068;50.710;14.492;2023-01-28T16:45:34;21.46;38.63
65472;DHT22;52068;50.710;14.492;2023-01-28T16:47:59;21.42;38.84
65472;DHT22;52068;50.710;14.492;2023-01-28T16:50:24;21.39;38.84
65472;DHT22;52068;50.710;14.492;2023-01-28T16:52:50;21.36;38.53
65472;DHT22;52068;50.710;14.492;2023-01-28T16:55:18;21.34;38.50
65472;DHT22;52068;50.710;14.492;2023-01-28T16:57:44;21.29;39.17
65472;DHT22;52068;50.710;14.492;2023-01-28T17:00:17;21.26;39.03
65472;DHT22;52068;50.710;14.492;2023-01-28T17:02:43;21.22;39.31
65472;DHT22;52068;50.710;14.492;2023-01-28T17:05:09;21.13;39.42
65472;DHT22;52068;50.710;14.492;2023-01-28T17:07:39;21.13;39.85
65472;DHT22;52068;50.710;14.492;2023-01-28T17:10:05;21.09;39.87
65472;DHT22;52068;50.710;14.492;2023-01-28T17:12:30;21.03;39.92
65472;DHT22;52068;50.710;14.492;2023-01-28T17:14:55;20.99;39.47
65472;DHT22;52068;50.710;14.492;2023-01-28T17:17:21;21.02;39.27
65472;DHT22;52068;50.710;14.492;2023-01-28T17:19:46;21.22;39.15
65472;DHT22;52068;50.710;14.492;2023-01-28T17:22:11;21.64;38.03
65472;DHT22;52068;50.710;14.492;2023-01-28T17:24:36;22.09;36.98
65472;DHT22;52068;50.710;14.492;2023-01-28T17:27:02;22.51;36.38
65472;DHT22;52068;50.710;14.492;2023-01-28T17:29:27;22.84;35.98
65472;DHT22;52068;50.710;14.492;2023-01-28T17:31:52;23.03;35.50